sensor_id;sensor_type;location;lat;lon;timestamp;pressure;altitude;pressure_sealevel;temperature;humidity
78317;BME280;67572;50.930;18.276;2023-04-25T00:00:16;97981.66;;;9.76;82.31
78317;BME280;67572;50.930;18.276;2023-04-25T00:03:21;97982.72;;;9.73;82.02
78317;BME280;67572;50.930;18.276;2023-04-25T00:06:27;97974.69;;;9.63;82.00
78317;BME280;67572;50.930;18.276;2023-04-25T00:09:31;97981.69;;;9.64;81.82
78317;BME280;67572;50.930;18.276;2023-04-25T00:12:35;97987.25;;;9.61;81.87
78317;BME280;67572;50.930;18.276;2023-04-25T00:15:40;97986.53;;;9.59;81.72
78317;BME280;67572;50.930;18.276;2023-04-25T00:18:44;97984.00;;;9.58;81.86
78317;BME280;67572;50.930;18.276;2023-04-25T00:21:53;97990.22;;;9.47;81.90
78317;BME280;67572;50.930;18.276;2023-04-25T00:24:57;97985.25;;;9.42;81.73
78317;BME280;67572;50.930;18.276;2023-04-25T00:28:02;97985.66;;;9.38;81.29
78317;BME280;67572;50.930;18.276;2023-04-25T00:31:08;97978.44;;;9.29;80.55
78317;BME280;67572;50.930;18.276;2023-04-25T00:34:11;97981.81;;;9.31;80.77
78317;BME280;67572;50.930;18.276;2023-04-25T00:37:15;97997.13;;;9.27;80.04
78317;BME280;67572;50.930;18.276;2023-04-25T00:40:20;97995.81;;;9.22;80.33
78317;BME280;67572;50.930;18.276;2023-04-25T00:43:25;97999.00;;;9.15;79.41
78317;BME280;67572;50.930;18.276;2023-04-25T00:46:30;97995.97;;;9.09;79.00
78317;BME280;67572;50.930;18.276;2023-04-25T00:49:34;97994.91;;;9.00;78.51
78317;BME280;67572;50.930;18.276;2023-04-25T00:52:38;98002.38;;;8.95;78.03
78317;BME280;67572;50.930;18.276;2023-04-25T00:55:43;97997.44;;;8.90;76.86
78317;BME280;67572;50.930;18.276;2023-04-25T00:58:47;97998.53;;;8.88;77.48
78317;BME280;67572;50.930;18.276;2023-04-25T01:01:53;98003.25;;;8.84;77.38
78317;BME280;67572;50.930;18.276;2023-04-25T01:04:57;98000.25;;;8.78;76.99
78317;BME280;67572;50.930;18.276;2023-04-25T01:08:01;98003.13;;;8.75;77.14
78317;BME280;67572;50.930;18.276;2023-04-25T01:11:05;98007.00;;;8.71;77.52
78317;BME280;67572;50.930;18.276;2023-04-25T01:14:08;98004.94;;;8.63;77.31
78317;BME280;67572;50.930;18.276;2023-04-25T01:17:13;98006.84;;;8.61;77.23
78317;BME280;67572;50.930;18.276;2023-04-25T01:20:19;98002.44;;;8.61;76.90
78317;BME280;67572;50.930;18.276;2023-04-25T01:23:25;98007.22;;;8.56;76.07
78317;BME280;67572;50.930;18.276;2023-04-25T01:26:29;98011.44;;;8.48;76.90
78317;BME280;67572;50.930;18.276;2023-04-25T01:29:36;98013.59;;;8.43;77.11
78317;BME280;67572;50.930;18.276;2023-04-25T01:32:41;98012.75;;;8.42;77.52
78317;BME280;67572;50.930;18.276;2023-04-25T01:35:44;98010.22;;;8.41;77.00
78317;BME280;67572;50.930;18.276;2023-04-25T01:38:50;98014.06;;;8.37;76.94
78317;BME280;67572;50.930;18.276;2023-04-25T01:41:56;98018.97;;;8.30;77.08
78317;BME280;67572;50.930;18.276;2023-04-25T01:45:00;98011.97;;;8.29;77.15
78317;BME280;67572;50.930;18.276;2023-04-25T01:48:05;98019.34;;;8.25;76.74
78317;BME280;67572;50.930;18.276;2023-04-25T01:51:09;98023.78;;;8.25;77.66
78317;BME280;67572;50.930;18.276;2023-04-25T01:54:15;98019.91;;;8.18;77.76
78317;BME280;67572;50.930;18.276;2023-04-25T01:57:18;98017.75;;;8.12;78.60
78317;BME280;67572;50.930;18.276;2023-04-25T02:00:23;98022.06;;;8.13;77.97
78317;BME280;67572;50.930;18.276;2023-04-25T02:03:27;98021.94;;;8.03;78.60
78317;BME280;67572;50.930;18.276;2023-04-25T02:06:32;98029.03;;;8.02;78.75
78317;BME280;67572;50.930;18.276;2023-04-25T02:09:36;98028.28;;;8.00;78.66
78317;BME280;67572;50.930;18.276;2023-04-25T02:12:41;98027.81;;;7.95;78.65
78317;BME280;67572;50.930;18.276;2023-04-25T02:15:56;98028.78;;;7.94;78.25
78317;BME280;67572;50.930;18.276;2023-04-25T02:19:00;98036.22;;;7.89;79.05
78317;BME280;67572;50.930;18.276;2023-04-25T02:22:05;98030.91;;;7.89;78.17
78317;BME280;67572;50.930;18.276;2023-04-25T02:25:11;98031.38;;;7.83;78.32
78317;BME280;67572;50.930;18.276;2023-04-25T02:28:15;98026.06;;;7.83;78.28
78317;BME280;67572;50.930;18.276;2023-04-25T02:31:19;98027.38;;;7.77;78.52
78317;BME280;67572;50.930;18.276;2023-04-25T02:34:22;98031.16;;;7.62;79.17
78317;BME280;67572;50.930;18.276;2023-04-25T02:37:26;98031.28;;;7.61;78.39
78317;BME280;67572;50.930;18.276;2023-04-25T02:40:31;98031.53;;;7.58;79.19
78317;BME280;67572;50.930;18.276;2023-04-25T02:43:35;98031.13;;;7.51;78.88
78317;BME280;67572;50.930;18.276;2023-04-25T02:46:39;98033.09;;;7.36;78.68
78317;BME280;67572;50.930;18.276;2023-04-25T02:49:42;98039.16;;;7.26;79.67
78317;BME280;67572;50.930;18.276;2023-04-25T02:52:47;98034.03;;;7.11;79.89
78317;BME280;67572;50.930;18.276;2023-04-25T02:55:59;98030.28;;;7.27;79.89
78317;BME280;67572;50.930;18.276;2023-04-25T02:59:03;98031.56;;;7.21;79.71
78317;BME280;67572;50.930;18.276;2023-04-25T03:02:07;98031.94;;;7.04;80.12
78317;BME280;67572;50.930;18.276;2023-04-25T03:05:10;98032.97;;;7.14;79.38
78317;BME280;67572;50.930;18.276;2023-04-25T03:08:14;98026.59;;;7.16;79.59
78317;BME280;67572;50.930;18.276;2023-04-25T03:11:19;98033.38;;;7.20;79.14
78317;BME280;67572;50.930;18.276;2023-04-25T03:14:23;98035.28;;;7.18;79.04
78317;BME280;67572;50.930;18.276;2023-04-25T03:17:27;98034.63;;;7.15;79.81
78317;BME280;67572;50.930;18.276;2023-04-25T03:20:30;98030.19;;;7.15;79.97
78317;BME280;67572;50.930;18.276;2023-04-25T03:23:34;98032.72;;;7.17;80.53
78317;BME280;67572;50.930;18.276;2023-04-25T03:26:39;98028.50;;;7.14;80.03
78317;BME280;67572;50.930;18.276;2023-04-25T03:29:43;98037.47;;;7.24;80.55
78317;BME280;67572;50.930;18.276;2023-04-25T03:32:46;98034.59;;;7.28;80.26
78317;BME280;67572;50.930;18.276;2023-04-25T03:35:52;98036.28;;;7.29;80.21
78317;BME280;67572;50.930;18.276;2023-04-25T03:38:56;98034.50;;;7.29;79.87
78317;BME280;67572;50.930;18.276;2023-04-25T03:42:01;98048.50;;;7.42;78.85
78317;BME280;67572;50.930;18.276;2023-04-25T03:45:07;98044.91;;;7.43;78.63
78317;BME280;67572;50.930;18.276;2023-04-25T03:48:11;98041.53;;;7.41;78.09
78317;BME280;67572;50.930;18.276;2023-04-25T03:51:14;98040.28;;;7.34;78.21
78317;BME280;67572;50.930;18.276;2023-04-25T03:54:19;98041.69;;;7.27;78.85
78317;BME280;67572;50.930;18.276;2023-04-25T03:57:47;98042.19;;;7.32;79.13
78317;BME280;67572;50.930;18.276;2023-04-25T04:00:51;98041.81;;;7.26;79.86
78317;BME280;67572;50.930;18.276;2023-04-25T04:03:55;98044.34;;;7.27;79.90
78317;BME280;67572;50.930;18.276;2023-04-25T04:07:01;98038.81;;;7.30;79.87
78317;BME280;67572;50.930;18.276;2023-04-25T04:10:09;98045.13;;;7.40;80.09
78317;BME280;67572;50.930;18.276;2023-04-25T04:13:15;98049.78;;;7.37;80.29
78317;BME280;67572;50.930;18.276;2023-04-25T04:16:19;98049.41;;;7.30;80.02
78317;BME280;67572;50.930;18.276;2023-04-25T04:19:23;98055.81;;;7.39;80.33
78317;BME280;67572;50.930;18.276;2023-04-25T04:22:37;98060.97;;;7.40;79.43
78317;BME280;67572;50.930;18.276;2023-04-25T04:25:45;98060.38;;;7.37;80.05
78317;BME280;67572;50.930;18.276;2023-04-25T04:29:03;98060.38;;;7.37;80.15
78317;BME280;67572;50.930;18.276;2023-04-25T04:32:16;98062.06;;;7.38;79.22
78317;BME280;67572;50.930;18.276;2023-04-25T04:35:20;98061.09;;;7.39;79.99
78317;BME280;67572;50.930;18.276;2023-04-25T04:38:25;98059.94;;;7.43;79.91
78317;BME280;67572;50.930;18.276;2023-04-25T04:41:32;98062.84;;;7.51;80.05
78317;BME280;67572;50.930;18.276;2023-04-25T04:44:55;98065.38;;;7.53;80.02
78317;BME280;67572;50.930;18.276;2023-04-25T04:48:14;98067.63;;;7.46;79.87
78317;BME280;67572;50.930;18.276;2023-04-25T04:51:37;98063.94;;;7.48;79.80
78317;BME280;67572;50.930;18.276;2023-04-25T04:54:59;98060.53;;;7.46;79.58
78317;BME280;67572;50.930;18.276;2023-04-25T04:58:31;98064.44;;;7.54;79.65
78317;BME280;67572;50.930;18.276;2023-04-25T05:01:56;98066.94;;;7.55;80.29
78317;BME280;67572;50.930;18.276;2023-04-25T05:05:18;98067.44;;;7.49;80.21
78317;BME280;67572;50.930;18.276;2023-04-25T05:08:44;98072.16;;;7.57;79.69
78317;BME280;67572;50.930;18.276;2023-04-25T05:12:11;98062.84;;;7.51;79.38
78317;BME280;67572;50.930;18.276;2023-04-25T05:15:33;98072.56;;;7.63;78.58
78317;BME280;67572;50.930;18.276;2023-04-25T05:18:54;98074.25;;;7.64;78.59
78317;BME280;67572;50.930;18.276;2023-04-25T05:22:27;98068.94;;;7.64;78.83
78317;BME280;67572;50.930;18.276;2023-04-25T05:25:56;98066.38;;;7.63;78.97
78317;BME280;67572;50.930;18.276;2023-04-25T05:29:19;98079.13;;;7.58;78.12
78317;BME280;67572;50.930;18.276;2023-04-25T05:32:52;98077.38;;;7.69;77.92
78317;BME280;67572;50.930;18.276;2023-04-25T05:35:57;98072.47;;;7.76;77.80
78317;BME280;67572;50.930;18.276;2023-04-25T05:39:01;98085.69;;;7.76;77.02
78317;BME280;67572;50.930;18.276;2023-04-25T05:42:24;98074.66;;;7.82;77.15
78317;BME280;67572;50.930;18.276;2023-04-25T05:45:47;98077.81;;;7.87;76.89
78317;BME280;67572;50.930;18.276;2023-04-25T05:49:26;98075.38;;;7.84;76.39
78317;BME280;67572;50.930;18.276;2023-04-25T05:53:00;98077.00;;;7.98;76.39
78317;BME280;67572;50.930;18.276;2023-04-25T05:56:06;98080.47;;;7.87;76.31
78317;BME280;67572;50.930;18.276;2023-04-25T05:59:10;98073.78;;;8.05;75.97
78317;BME280;67572;50.930;18.276;2023-04-25T06:02:14;98083.59;;;8.16;74.99
78317;BME280;67572;50.930;18.276;2023-04-25T06:05:18;98079.34;;;8.14;75.14
78317;BME280;67572;50.930;18.276;2023-04-25T06:08:23;98082.72;;;8.16;74.98
78317;BME280;67572;50.930;18.276;2023-04-25T06:11:27;98078.06;;;8.19;74.23
78317;BME280;67572;50.930;18.276;2023-04-25T06:14:32;98076.66;;;8.38;74.76
78317;BME280;67572;50.930;18.276;2023-04-25T06:17:36;98086.13;;;8.29;73.14
78317;BME280;67572;50.930;18.276;2023-04-25T06:20:40;98083.56;;;8.40;73.98
78317;BME280;67572;50.930;18.276;2023-04-25T06:23:46;98087.06;;;8.41;73.92
78317;BME280;67572;50.930;18.276;2023-04-25T06:26:54;98086.22;;;8.51;74.06
78317;BME280;67572;50.930;18.276;2023-04-25T06:29:58;98078.66;;;8.23;71.71
78317;BME280;67572;50.930;18.276;2023-04-25T06:33:04;98078.91;;;8.31;73.19
78317;BME280;67572;50.930;18.276;2023-04-25T06:36:08;98086.75;;;8.32;72.14
78317;BME280;67572;50.930;18.276;2023-04-25T06:39:14;98076.66;;;8.38;71.57
78317;BME280;67572;50.930;18.276;2023-04-25T06:42:18;98081.69;;;8.29;70.86
78317;BME280;67572;50.930;18.276;2023-04-25T06:45:32;98074.88;;;8.38;70.86
78317;BME280;67572;50.930;18.276;2023-04-25T06:48:36;98083.44;;;8.53;71.22
78317;BME280;67572;50.930;18.276;2023-04-25T06:51:40;98086.34;;;8.50;70.88
78317;BME280;67572;50.930;18.276;2023-04-25T06:54:45;98089.75;;;8.63;70.85
78317;BME280;67572;50.930;18.276;2023-04-25T06:58:10;98081.19;;;8.71;71.02
78317;BME280;67572;50.930;18.276;2023-04-25T07:01:37;98080.34;;;8.70;70.25
78317;BME280;67572;50.930;18.276;2023-04-25T07:04:46;98086.13;;;8.75;70.44
78317;BME280;67572;50.930;18.276;2023-04-25T07:07:50;98086.84;;;8.88;70.11
78317;BME280;67572;50.930;18.276;2023-04-25T07:10:55;98085.66;;;9.04;69.79
78317;BME280;67572;50.930;18.276;2023-04-25T07:13:59;98088.31;;;9.15;69.05
78317;BME280;67572;50.930;18.276;2023-04-25T07:17:03;98090.81;;;9.28;69.88
78317;BME280;67572;50.930;18.276;2023-04-25T07:20:09;98077.78;;;9.13;68.99
78317;BME280;67572;50.930;18.276;2023-04-25T07:23:14;98079.63;;;9.24;69.10
78317;BME280;67572;50.930;18.276;2023-04-25T07:26:19;98078.00;;;9.44;69.35
78317;BME280;67572;50.930;18.276;2023-04-25T07:29:43;98084.44;;;9.30;68.74
78317;BME280;67572;50.930;18.276;2023-04-25T07:32:47;98092.84;;;9.35;68.31
78317;BME280;67572;50.930;18.276;2023-04-25T07:35:52;98086.00;;;9.33;67.64
78317;BME280;67572;50.930;18.276;2023-04-25T07:38:56;98084.75;;;9.48;67.52
78317;BME280;67572;50.930;18.276;2023-04-25T07:42:01;98084.00;;;9.57;66.44
78317;BME280;67572;50.930;18.276;2023-04-25T07:45:07;98082.16;;;9.69;65.51
78317;BME280;67572;50.930;18.276;2023-04-25T07:48:16;98077.22;;;9.64;65.86
78317;BME280;67572;50.930;18.276;2023-04-25T07:51:21;98091.59;;;9.62;66.33
78317;BME280;67572;50.930;18.276;2023-04-25T07:54:27;98083.31;;;9.87;67.42
78317;BME280;67572;50.930;18.276;2023-04-25T07:57:38;98085.81;;;9.89;65.11
78317;BME280;67572;50.930;18.276;2023-04-25T08:00:42;98078.75;;;9.78;65.53
78317;BME280;67572;50.930;18.276;2023-04-25T08:04:13;98081.78;;;9.73;63.87
78317;BME280;67572;50.930;18.276;2023-04-25T08:07:38;98088.28;;;9.81;63.92
78317;BME280;67572;50.930;18.276;2023-04-25T08:10:42;98079.75;;;9.66;64.36
78317;BME280;67572;50.930;18.276;2023-04-25T08:13:48;98082.44;;;9.55;63.54
78317;BME280;67572;50.930;18.276;2023-04-25T08:16:52;98079.03;;;9.64;63.12
78317;BME280;67572;50.930;18.276;2023-04-25T08:19:55;98079.09;;;9.53;60.54
78317;BME280;67572;50.930;18.276;2023-04-25T08:23:04;98081.56;;;9.65;61.49
78317;BME280;67572;50.930;18.276;2023-04-25T08:26:20;98088.53;;;9.78;63.51
78317;BME280;67572;50.930;18.276;2023-04-25T08:29:26;98082.81;;;9.61;61.48
78317;BME280;67572;50.930;18.276;2023-04-25T08:32:33;98090.28;;;9.56;61.11
78317;BME280;67572;50.930;18.276;2023-04-25T08:35:53;98091.09;;;9.68;61.17
78317;BME280;67572;50.930;18.276;2023-04-25T08:38:58;98093.16;;;9.96;62.20
78317;BME280;67572;50.930;18.276;2023-04-25T08:42:06;98097.75;;;9.94;61.97
78317;BME280;67572;50.930;18.276;2023-04-25T08:45:12;98099.66;;;9.71;61.05
78317;BME280;67572;50.930;18.276;2023-04-25T08:48:18;98102.94;;;9.96;61.54
78317;BME280;67572;50.930;18.276;2023-04-25T08:51:23;98101.88;;;9.98;61.41
78317;BME280;67572;50.930;18.276;2023-04-25T08:54:28;98109.34;;;9.93;61.31
78317;BME280;67572;50.930;18.276;2023-04-25T08:57:37;98110.56;;;9.89;59.42
78317;BME280;67572;50.930;18.276;2023-04-25T09:00:45;98109.84;;;10.31;62.94
78317;BME280;67572;50.930;18.276;2023-04-25T09:03:50;98103.75;;;10.08;60.60
78317;BME280;67572;50.930;18.276;2023-04-25T09:06:54;98116.56;;;10.02;59.99
78317;BME280;67572;50.930;18.276;2023-04-25T09:09:58;98115.47;;;10.37;61.78
78317;BME280;67572;50.930;18.276;2023-04-25T09:13:06;98121.44;;;10.30;61.27
78317;BME280;67572;50.930;18.276;2023-04-25T09:16:58;98113.13;;;10.12;59.46
78317;BME280;67572;50.930;18.276;2023-04-25T09:20:13;98121.09;;;10.12;58.95
78317;BME280;67572;50.930;18.276;2023-04-25T09:23:18;98119.97;;;10.37;59.79
78317;BME280;67572;50.930;18.276;2023-04-25T09:26:22;98119.22;;;10.35;58.65
78317;BME280;67572;50.930;18.276;2023-04-25T09:29:29;98121.44;;;10.30;58.24
78317;BME280;67572;50.930;18.276;2023-04-25T09:32:35;98121.31;;;10.31;59.13
78317;BME280;67572;50.930;18.276;2023-04-25T09:35:45;98117.59;;;10.22;57.98
78317;BME280;67572;50.930;18.276;2023-04-25T09:39:12;98113.25;;;10.42;58.20
78317;BME280;67572;50.930;18.276;2023-04-25T09:42:26;98117.03;;;10.81;57.62
78317;BME280;67572;50.930;18.276;2023-04-25T09:45:31;98123.06;;;10.83;57.13
78317;BME280;67572;50.930;18.276;2023-04-25T09:48:37;98126.88;;;10.91;57.71
78317;BME280;67572;50.930;18.276;2023-04-25T09:51:54;98117.13;;;11.01;57.34
78317;BME280;67572;50.930;18.276;2023-04-25T09:55:00;98115.28;;;11.01;55.23
78317;BME280;67572;50.930;18.276;2023-04-25T09:58:09;98118.47;;;10.95;56.37
78317;BME280;67572;50.930;18.276;2023-04-25T10:01:16;98112.75;;;10.69;55.84
78317;BME280;67572;50.930;18.276;2023-04-25T10:04:35;98113.72;;;10.68;56.62
78317;BME280;67572;50.930;18.276;2023-04-25T10:07:44;98116.72;;;10.75;57.06
78317;BME280;67572;50.930;18.276;2023-04-25T10:10:51;98116.97;;;10.51;57.06
78317;BME280;67572;50.930;18.276;2023-04-25T10:13:56;98112.22;;;10.54;57.33
78317;BME280;67572;50.930;18.276;2023-04-25T10:17:00;98116.19;;;10.39;56.15
78317;BME280;67572;50.930;18.276;2023-04-25T10:20:06;98120.66;;;10.60;58.13
78317;BME280;67572;50.930;18.276;2023-04-25T10:23:13;98129.97;;;10.33;57.49
78317;BME280;67572;50.930;18.276;2023-04-25T10:26:19;98123.75;;;10.12;58.07
78317;BME280;67572;50.930;18.276;2023-04-25T10:29:25;98120.25;;;10.22;59.35
78317;BME280;67572;50.930;18.276;2023-04-25T10:32:32;98114.88;;;10.34;58.55
78317;BME280;67572;50.930;18.276;2023-04-25T10:35:38;98110.50;;;10.44;58.06
78317;BME280;67572;50.930;18.276;2023-04-25T10:38:43;98115.53;;;10.68;59.01
78317;BME280;67572;50.930;18.276;2023-04-25T10:41:51;98112.09;;;10.56;57.92
78317;BME280;67572;50.930;18.276;2023-04-25T10:45:04;98110.25;;;10.98;58.10
78317;BME280;67572;50.930;18.276;2023-04-25T10:48:26;98106.22;;;10.52;58.09
78317;BME280;67572;50.930;18.276;2023-04-25T10:51:32;98111.06;;;10.47;57.34
78317;BME280;67572;50.930;18.276;2023-04-25T10:54:57;98108.94;;;10.62;57.62
78317;BME280;67572;50.930;18.276;2023-04-25T10:58:03;98112.28;;;10.64;56.56
78317;BME280;67572;50.930;18.276;2023-04-25T11:01:08;98096.78;;;10.69;54.93
78317;BME280;67572;50.930;18.276;2023-04-25T11:04:23;98098.47;;;10.91;58.22
78317;BME280;67572;50.930;18.276;2023-04-25T11:07:34;98099.19;;;11.03;56.28
78317;BME280;67572;50.930;18.276;2023-04-25T11:10:41;98094.31;;;11.08;58.83
78317;BME280;67572;50.930;18.276;2023-04-25T11:13:48;98097.03;;;10.87;57.19
78317;BME280;67572;50.930;18.276;2023-04-25T11:16:53;98103.06;;;10.89;58.23
78317;BME280;67572;50.930;18.276;2023-04-25T11:20:00;98092.44;;;10.89;56.48
78317;BME280;67572;50.930;18.276;2023-04-25T11:23:07;98096.25;;;10.96;55.57
78317;BME280;67572;50.930;18.276;2023-04-25T11:26:11;98094.53;;;11.26;56.12
78317;BME280;67572;50.930;18.276;2023-04-25T11:29:15;98095.88;;;11.41;56.59
78317;BME280;67572;50.930;18.276;2023-04-25T11:32:20;98095.88;;;11.51;54.08
78317;BME280;67572;50.930;18.276;2023-04-25T11:35:25;98095.09;;;11.79;56.04
78317;BME280;67572;50.930;18.276;2023-04-25T11:38:32;98095.75;;;11.62;53.89
78317;BME280;67572;50.930;18.276;2023-04-25T11:41:38;98094.56;;;11.85;56.17
78317;BME280;67572;50.930;18.276;2023-04-25T11:44:42;98087.63;;;11.63;55.19
78317;BME280;67572;50.930;18.276;2023-04-25T11:47:47;98085.13;;;11.72;55.59
78317;BME280;67572;50.930;18.276;2023-04-25T11:50:51;98095.88;;;11.51;54.04
78317;BME280;67572;50.930;18.276;2023-04-25T11:53:59;98099.25;;;11.53;54.46
78317;BME280;67572;50.930;18.276;2023-04-25T11:57:04;98093.91;;;11.53;55.32
78317;BME280;67572;50.930;18.276;2023-04-25T12:00:12;98101.66;;;11.65;55.26
78317;BME280;67572;50.930;18.276;2023-04-25T12:03:19;98095.19;;;11.49;53.95
78317;BME280;67572;50.930;18.276;2023-04-25T12:06:29;98096.63;;;11.22;54.23
78317;BME280;67572;50.930;18.276;2023-04-25T12:09:37;98094.66;;;11.24;56.13
78317;BME280;67572;50.930;18.276;2023-04-25T12:12:43;98094.75;;;11.03;55.14
78317;BME280;67572;50.930;18.276;2023-04-25T12:15:47;98104.44;;;11.14;55.89
78317;BME280;67572;50.930;18.276;2023-04-25T12:18:55;98106.16;;;11.25;56.93
78317;BME280;67572;50.930;18.276;2023-04-25T12:22:00;98109.06;;;11.12;56.79
78317;BME280;67572;50.930;18.276;2023-04-25T12:25:07;98114.75;;;11.38;57.59
78317;BME280;67572;50.930;18.276;2023-04-25T12:28:13;98109.47;;;11.17;53.90
78317;BME280;67572;50.930;18.276;2023-04-25T12:31:17;98110.72;;;11.03;53.49
78317;BME280;67572;50.930;18.276;2023-04-25T12:34:21;98104.78;;;11.00;55.02
78317;BME280;67572;50.930;18.276;2023-04-25T12:37:26;98114.66;;;10.88;55.03
78317;BME280;67572;50.930;18.276;2023-04-25T12:40:31;98100.59;;;10.97;54.53
78317;BME280;67572;50.930;18.276;2023-04-25T12:43:36;98109.38;;;11.19;54.63
78317;BME280;67572;50.930;18.276;2023-04-25T12:46:40;98116.88;;;11.44;53.51
78317;BME280;67572;50.930;18.276;2023-04-25T12:49:44;98107.16;;;11.33;53.11
78317;BME280;67572;50.930;18.276;2023-04-25T12:52:47;98108.72;;;11.36;53.39
78317;BME280;67572;50.930;18.276;2023-04-25T12:55:53;98111.72;;;11.52;53.43
78317;BME280;67572;50.930;18.276;2023-04-25T12:59:01;98103.63;;;11.73;53.59
78317;BME280;67572;50.930;18.276;2023-04-25T13:02:07;98100.31;;;11.81;53.24
78317;BME280;67572;50.930;18.276;2023-04-25T13:05:10;98092.63;;;11.87;53.21
78317;BME280;67572;50.930;18.276;2023-04-25T13:08:14;98107.31;;;11.91;51.92
78317;BME280;67572;50.930;18.276;2023-04-25T13:11:21;98096.88;;;11.59;51.08
78317;BME280;67572;50.930;18.276;2023-04-25T13:14:25;98093.38;;;11.59;50.10
78317;BME280;67572;50.930;18.276;2023-04-25T13:17:29;98091.34;;;11.91;51.19
78317;BME280;67572;50.930;18.276;2023-04-25T13:20:33;98094.66;;;11.74;50.31
78317;BME280;67572;50.930;18.276;2023-04-25T13:23:37;98099.53;;;11.69;50.61
78317;BME280;67572;50.930;18.276;2023-04-25T13:26:43;98103.88;;;11.51;48.93
78317;BME280;67572;50.930;18.276;2023-04-25T13:29:46;98099.91;;;12.05;50.88
78317;BME280;67572;50.930;18.276;2023-04-25T13:32:49;98104.38;;;11.85;49.09
78317;BME280;67572;50.930;18.276;2023-04-25T13:35:53;98105.63;;;11.81;49.97
78317;BME280;67572;50.930;18.276;2023-04-25T13:38:58;98093.25;;;11.70;48.99
78317;BME280;67572;50.930;18.276;2023-04-25T13:42:03;98094.31;;;12.17;48.57
78317;BME280;67572;50.930;18.276;2023-04-25T13:45:08;98096.88;;;11.79;46.80
78317;BME280;67572;50.930;18.276;2023-04-25T13:48:12;98106.00;;;11.66;48.02
78317;BME280;67572;50.930;18.276;2023-04-25T13:51:16;98103.56;;;11.54;49.86
78317;BME280;67572;50.930;18.276;2023-04-25T13:54:19;98112.69;;;11.51;48.81
78317;BME280;67572;50.930;18.276;2023-04-25T13:57:24;98105.16;;;11.56;48.73
78317;BME280;67572;50.930;18.276;2023-04-25T14:00:28;98110.00;;;11.91;49.23
78317;BME280;67572;50.930;18.276;2023-04-25T14:03:32;98115.31;;;12.59;49.09
78317;BME280;67572;50.930;18.276;2023-04-25T14:06:36;98108.03;;;12.52;49.12
78317;BME280;67572;50.930;18.276;2023-04-25T14:09:40;98105.09;;;12.55;47.04
78317;BME280;67572;50.930;18.276;2023-04-25T14:12:47;98110.41;;;12.06;49.17
78317;BME280;67572;50.930;18.276;2023-04-25T14:15:54;98115.34;;;12.20;51.36
78317;BME280;67572;50.930;18.276;2023-04-25T14:18:58;98116.59;;;12.26;49.60
78317;BME280;67572;50.930;18.276;2023-04-25T14:22:02;98113.94;;;11.97;48.96
78317;BME280;67572;50.930;18.276;2023-04-25T14:25:12;98126.94;;;11.90;49.79
78317;BME280;67572;50.930;18.276;2023-04-25T14:28:17;98129.19;;;11.85;51.57
78317;BME280;67572;50.930;18.276;2023-04-25T14:31:21;98119.31;;;11.66;52.06
78317;BME280;67572;50.930;18.276;2023-04-25T14:34:25;98126.84;;;11.52;50.68
78317;BME280;67572;50.930;18.276;2023-04-25T14:37:28;98123.84;;;11.35;52.46
78317;BME280;67572;50.930;18.276;2023-04-25T14:40:32;98128.00;;;11.68;52.84
78317;BME280;67572;50.930;18.276;2023-04-25T14:43:37;98134.16;;;11.69;50.76
78317;BME280;67572;50.930;18.276;2023-04-25T14:46:42;98134.25;;;11.88;50.86
78317;BME280;67572;50.930;18.276;2023-04-25T14:49:46;98130.72;;;11.38;49.89
78317;BME280;67572;50.930;18.276;2023-04-25T14:52:56;98132.38;;;11.29;50.36
78317;BME280;67572;50.930;18.276;2023-04-25T14:56:05;98135.72;;;11.31;51.12
78317;BME280;67572;50.930;18.276;2023-04-25T14:59:11;98134.75;;;11.32;52.82
78317;BME280;67572;50.930;18.276;2023-04-25T15:02:17;98129.75;;;11.08;52.38
78317;BME280;67572;50.930;18.276;2023-04-25T15:05:20;98136.88;;;11.08;53.72
78317;BME280;67572;50.930;18.276;2023-04-25T15:08:24;98135.22;;;11.07;54.16
78317;BME280;67572;50.930;18.276;2023-04-25T15:11:28;98141.88;;;11.01;54.65
78317;BME280;67572;50.930;18.276;2023-04-25T15:14:33;98143.47;;;11.04;54.95
78317;BME280;67572;50.930;18.276;2023-04-25T15:17:37;98148.41;;;11.18;53.46
78317;BME280;67572;50.930;18.276;2023-04-25T15:20:41;98142.84;;;11.21;54.36
78317;BME280;67572;50.930;18.276;2023-04-25T15:23:45;98142.38;;;11.16;54.30
78317;BME280;67572;50.930;18.276;2023-04-25T15:26:48;98145.94;;;11.26;55.37
78317;BME280;67572;50.930;18.276;2023-04-25T15:29:54;98140.75;;;11.25;53.87
78317;BME280;67572;50.930;18.276;2023-04-25T15:32:57;98154.28;;;11.12;54.45
78317;BME280;67572;50.930;18.276;2023-04-25T15:36:01;98150.66;;;11.13;54.27
78317;BME280;67572;50.930;18.276;2023-04-25T15:39:05;98151.88;;;11.09;54.81
78317;BME280;67572;50.930;18.276;2023-04-25T15:42:08;98152.66;;;11.00;55.15
78317;BME280;67572;50.930;18.276;2023-04-25T15:45:14;98154.53;;;10.88;54.56
78317;BME280;67572;50.930;18.276;2023-04-25T15:48:19;98155.47;;;10.98;55.28
78317;BME280;67572;50.930;18.276;2023-04-25T15:51:22;98155.13;;;11.13;54.95
78317;BME280;67572;50.930;18.276;2023-04-25T15:54:26;98157.53;;;11.56;54.66
78317;BME280;67572;50.930;18.276;2023-04-25T15:57:36;98150.97;;;11.60;54.27
78317;BME280;67572;50.930;18.276;2023-04-25T16:00:44;98143.66;;;12.12;53.16
78317;BME280;67572;50.930;18.276;2023-04-25T16:03:52;98145.59;;;11.90;50.56
78317;BME280;67572;50.930;18.276;2023-04-25T16:06:59;98147.41;;;11.90;51.70
78317;BME280;67572;50.930;18.276;2023-04-25T16:10:08;98148.97;;;11.52;52.80
78317;BME280;67572;50.930;18.276;2023-04-25T16:13:15;98146.13;;;11.34;51.21
78317;BME280;67572;50.930;18.276;2023-04-25T16:16:20;98145.03;;;11.47;52.78
78317;BME280;67572;50.930;18.276;2023-04-25T16:19:24;98150.22;;;11.18;53.36
78317;BME280;67572;50.930;18.276;2023-04-25T16:22:28;98163.50;;;10.87;52.59
78317;BME280;67572;50.930;18.276;2023-04-25T16:25:32;98157.16;;;10.78;53.66